首页 Cohen & Steers Quality Income Realty Fund(usRQI)-基本信息

Cohen & Steers Quality Income Realty Fund(usRQI)-基本信息

日报更新时间:

周报更新时间:04-18 04:06

行情信息

今开价:14.61

最高价:14.83

成交量:203417.0

昨收价:14.57

最低价:14.55

最新价:14.81

行情图标
概要信息

英文名称:Cohen & Steers Quality Income Realty Fund


行业:基金


简介:Cohen & Steers Quality Income Realty Fund is registered as a non-diversified, closed-end management......................


最新量化综合结论
百科信息
  • 相关网站
  • 员工交易记录
  • 持股信息
  • 领导人信息

交易日期 交易人 职位 类型 交易份额 价格
2017-07-11 Cohen (Bonnie R) Director Sell 34 12.71
2017-02-08 Maginnis (Gerald J) Director Buy 391 12.77
2016-12-30 Cohen (Bonnie R) Director Buy 225 --
2016-12-30 Ward C Edward Jr Director Buy 87 --
2016-12-30 Derechin (Adam M) Chief Executive Officer Buy 430 --
2016-12-30 Maginnis (Gerald J) Director Buy 66 --
2016-09-25 Cohen (Bonnie R) Director Sell 1913 13.31
2016-03-09 Maginnis (Gerald J) Director Buy 855 11.68
2015-12-30 Derechin (Adam M) Chief Executive Officer Buy 430 --
2015-12-30 Cohen (Bonnie R) Director Buy 287 --
2015-12-30 Ward C Edward Jr Director Buy 71 --
2015-11-09 Cohen (Bonnie R) Director Sell 1000 11.12

机构持股
持有者 持有份额 持股比例 份额变化 变化率 报告日期
HighTower Advisors, LLC 125890 0.12% 1373 1.10% 2019-03-31
Ameriprise Financial Inc 320535 0.29% -71853 -18.31% 2019-03-31
UBS Group AG 544441 0.50% -1564712 -74.19% 2019-03-31
First Trust Portfolios L.P. 579063 0.53% 73772 14.60% 2019-07-31
Raymond James & Associates 1268923 1.16% 90667 7.70% 2019-03-31
Wells Fargo & Co 1592067 1.46% 156002 10.86% 2019-03-31
Morgan Stanley Smith Barney LLC 3060239 2.80% 139542 4.78% 2019-03-31
Morgan Stanley - Brokerage Accounts 3060312 2.80% 139615 4.78% 2019-03-31
Bank of America Corporation 3258689 2.99% 223066 7.35% 2019-03-31
Ameriprise Financial Services Inc 319690 0.29% -72698 -18.53% 2019-03-31
Advisors Asset Management 287098 0.26% -34769 -10.80% 2019-03-31
HBK INVESTMENTS L P 205828 0.19% -139443 -40.39% 2019-03-31
CAMBRIDGE Invest RESEARCH ADVISORS, INC. 129608 0.12% -142109 -52.30% 2019-03-31
Royal Bank of Canada 148959 0.14% -134089 -47.37% 2019-03-31
IBEX WEALTH ADVISORS 153116 0.14% 153116 -- 2019-03-31
Millennium Management LLC 155846 0.14% 155846 -- 2019-03-31
Janney Montgomery Scott LLC 160422 0.15% 55909 53.49% 2019-03-31
Guggenheim Capital LLC 163554 0.15% 29834 22.31% 2019-03-31
Burney Co 170844 0.16% -1766 -1.02% 2019-03-31
Guaranty Trust Company of Missouri 180555 0.17% 66040 57.67% 2019-03-31
Raymond James Finl Svs Advisors, Inc. 1082978 0.99% 20247 1.91% 2018-12-31
Vident Investment Advisory, LLC 693751 0.64% -9594 -1.36% 2018-12-31
BMO Capital Markets Corp. 389000 0.36% -52442 -11.88% 2018-12-31
Bank of Montreal 389000 0.36% -52442 -11.88% 2018-12-31
Wolverine Asset Management LLC 499056 0.46% 499056 -- 2018-12-31
Arlington Capital Management Inc 171242 0.16% 171242 -- 2018-09-30
Exchange Traded Concepts, LLC 693751 0.64% -3197 -0.46% 2018-12-31
Wells Fargo Advisors, LLC 1533420 1.40% -214916 -12.29% 2018-09-30
UBS Securities LLC 2318854 2.12% -1846 -0.08% 2018-06-30
Merrill Lynch & Co Inc 2647572 2.43% 16135 0.61% 2018-06-30
Lee Financial Corp 91641 0.08% -16698 -15.41% 2018-06-30
RMR Advisors, Inc 100297 0.09% -- -- 2018-06-30
Oppenheimer & Co Inc 127698 0.12% 62367 95.46% 2018-03-31
Youngs Advisory Group Inc 142295 0.13% -12775 -8.24% 2018-06-30
Nine Masts Capital Limited 230800 0.21% 230800 -- 2018-06-30
Commonwealth Equity Services Inc 74536 0.07% -15106 -16.85% 2018-03-31
Advisor Group, Inc. 75549 0.07% -1997 -2.58% 2018-03-31
Horizon Asset Management Inc/ny 67842 0.06% 300 0.44% 2018-03-31
LPL Financial Corp 51417 0.05% 17719 52.58% 2018-03-31
Ladenburg Thalmann Asset Management Inc 54330 0.05% -15225 -21.89% 2018-03-31
National Asset Management Inc 79339 0.07% -8180 -9.35% 2017-12-31
Bank of Nova Scotia 130307 0.12% -67489 -34.12% 2017-12-31
Rothschild Investment Corp 230150 0.21% -4150 -1.77% 2017-12-31
Bessemer Investment Management LLC 186550 0.17% 186550 -- 2017-09-30
Cornerstone Advisors, Inc. 117021 0.11% 117021 -- 2017-09-30
Invesco Advisers, Inc 455848 0.45% -51304 -10.12% 2016-09-30
Reitway Global 148136 0.13% 148136 -- 2016-10-31
McGowan Group Asset Management, Inc. 1608715 1.58% -161502 -9.12% 2016-09-30
Horizon Kinetics LLC 153780 0.10% -1796 -1.20% 2013-03-31
Bank of America Merrill Lynch (US) 1565394 1.40% -152833 -8.90% 2013-03-31
Advisors Asset Management, Inc. 746048 0.70% -33954 -4.40% 2013-03-31
Guggenheim Investments 676930 0.60% 5253 0.80% 2013-03-31
Central Trust & Investment Company 640048 0.60% 58636 10.10% 2013-03-31
Wells Fargo Advisors 629775 0.60% 13518 2.20% 2013-03-31
Invesco Advisers, Inc. 628550 0.60% -227282 -26.60% 2013-03-31
Morgan Stanley Wealth Management 1820152 1.70% 5777 0.30% 2013-03-31
LPL Financial Services 331597 0.30% 176102 113.30% 2013-03-31
Raymond James & Associates, Inc. 234351 0.20% 73430 45.60% 2013-03-31
United Asset Strategies, Inc. 186398 0.20% 12981 7.50% 2013-03-31
Cetera Advisors LLC 185483 0.20% -11166 -5.70% 2013-03-31
Advisors Capital Management, LLC 181018 0.20% 181018 100.00% 2013-03-31
GCIC Ltd. 400000 0.40% 400000 100.00% 2013-03-31
共同基金持股
持有者 持有份额 持股比例 份额变化 变化率 报告日期
Thrivent Multidimensional Income Port 4690 -- 28 0.60% 2019-05-31
Rareview Longevity Income Generation Fd 38901 0.04% -5388 -12.17% 2019-04-30
FT US Equity CE 22 41529 0.04% 14832 55.56% 2018-12-12
FT US Equity CE 29 41668 0.04% 138 0.33% 2019-07-31
FT US Equity CE 26 49082 0.04% 127 0.26% 2019-07-31
FT US Equity CE 31 48029 0.04% 138 0.29% 2019-07-31
RMR Real Estate Income Fund 70297 0.06% -- -- 2019-05-31
Hanlon Managed Income Fund 105518 0.10% 105518 -- 2019-04-30
Orinda Income Opportunities Fund 116050 0.11% 20000 20.82% 2019-06-30
FT January Effect Plus 6 38435 0.04% -156 -0.40% 2019-01-29
FT Private Client Equity May 2019 36415 0.03% 751 2.11% 2019-05-09
FT Dividend & Income Select CE 64 30959 0.03% 65 0.21% 2019-07-31
FT Strategic Dividend Plus 29 7576 0.01% -11 -0.14% 2018-11-05
FT Core Three CE Allocation 38 16741 0.02% -14 -0.08% 2019-07-31
FT Core Three CE Allocation 36 16943 0.02% -5 -0.03% 2019-07-31
FT Core Three CE Allocation 33 18359 0.02% -15 -0.08% 2019-07-31
FT Core Three CE Allocation 34 20560 0.02% -29 -0.14% 2019-07-31
FT Core Three CE Allocation 27 20689 0.02% 288 1.41% 2019-01-04
FT Equity Closed-End 53 25580 0.02% 83 0.33% 2019-07-31
FT Dividend & Income Select CE 74 26482 0.02% 64 0.24% 2019-07-31
FT Core Three CE Allocation 26 18906 0.02% 2878 17.96% 2018-10-05
FT Equity Closed-End 42 45172 0.04% 13598 43.07% 2018-10-05
FT Dividend & Income Select CE 56 56992 0.05% 8553 17.66% 2018-10-12
Reitway BCI Global Property 59513 0.05% -- -- 2018-09-30
FT US Equity CE 21 71974 0.07% 20875 40.85% 2018-09-14
Cornerstone Strategic Value 126800 0.12% 126800 -- 2018-12-31
FT Core Three CE Allocation 25 27219 0.02% 6974 34.45% 2018-08-29
FT Equity Closed-End 41 29595 0.03% 5354 22.09% 2018-07-23
AQR Diversified Arbitrage Fund 13030 0.01% 13030 -- 2018-12-31
BCI Best Blend Global Property 8184 0.01% -874 -9.65% 2018-09-30
YieldShares High Income ETF 693751 0.64% -3197 -0.46% 2018-12-31
FT Private Client Equity February 2018 27506 0.03% 1548 5.96% 2018-02-05
TFS Market Neutral 44 -- 44 -- 2017-07-31
Value Line VIP Equity Advantage 6200 0.01% 500 8.77% 2018-03-31
Guggenheim VT Multi-Hedge Strategies 422 -- -1899 -81.82% 2018-03-31
Guggenheim Multi-Hedge Strategies A 841 -- -3400 -80.17% 2018-03-31
Old Westbury Strategic Opportunities 186550 0.17% -10000 -5.09% 2017-10-31
Invesco Global Real Estate Income A 357173 0.32% -- -- 2016-12-31
Thrivent Ser Real Estate Securities 14400 0.01% 4400 44.00% 2016-11-30
Dynamic Alternative Yield Fund -- -- -14300 -100.00% 2012-06-30
TFS Market Neutral Fund 133650 0.10% 133650 1.00% 2013-01-31
Invesco Global Real Estate Income Fund 213973 0.20% 7100 3.40% 2013-03-31

Adam M. Derechin Adam M. Derechin is a businessperson who has been at the head of 16 different companies. Currently, he holds the position of President & Chief Executive Officer at Cohen & Steers Global Income Builder, Inc., President & Chief Executive Officer for Cohen & Steers Total Return Realty Fund, Inc., President & Chief Executive Officer at Cohen & Steers Infrastructure Fund, Inc., President & Chief Executive Officer of Cohen & Steers Quality Income Realty Fund, Inc., President & Chief Executive Officer for Cohen & Steers REIT & Preferred & Income Fund, Inc., President & Chief Executive Officer for Cohen & Steers MLP Income & Energy Opportunity Fund Inc, President & Chief Executive Officer of Cohen & Steers Ltd. Duration Preferred & Income Fund, Inc., President & Chief Executive Officer at Cohen & Steers Select Preferred & Income Fund, Inc., President & Chief Executive Officer of Cohen & Steers Closed-End Opportunity Fund, Inc. and Chief Operating Officer for Cohen & Steers, Inc. (New York), President & Chief Executive Officer of Cohen & Steers Preferred Securities & Income SMA Shares, Inc. (a subsidiary of Cohen & Steers, Inc. (New York)). Mr. Derechin previously held the position of President & Chief Executive Officer at Cohen & Steers MLP Fund, Inc., President & Chief Executive Officer of Cohen & Steers Dividend Majors Fund, Inc., President & Chief Executive Officer of Cohen & Steers Global Power & Utility Fund, Inc., President of Cohen & Steers REIT & Utility Income Fund, Inc., President of Cohen & Steers Premium Income Realty Fund, Inc. and President of Cohen & Steers Worldwide Realty Income Fund, Inc. Mr. Derechin received an undergraduate degree from Brandeis University and an MBA from the University of Maryland.
George Grossman George Grossman is on the board of Cohen & Steers Total Return Realty Fund, Inc. and 9 other companies.
William Frank Scapell Mr. William F. Scapell, CFA, is a Vice President at Cohen & Steers REIT & Preferred & Income Fund, Inc., a Head of Fixed Income & Preferred Securities at Cohen & Steers Capital Management, Inc., a Vice President at Cohen & Steers Global Income Builder, Inc., a Vice President at Cohen & Steers Quality Income Realty Fund, Inc., a Vice President at Cohen & Steers Total Return Realty Fund, Inc., a Principal of Federal Reserve Bank of New York and a Vice President at Cohen & Steers Infrastructure Fund, Inc. He is Executive Vice President and a senior portfolio manager for the firm's preferred securities portfolios. He has over 26 years of investment experience. Prior to joining Cohen & Steers in 2003, he worked in the fixed income research department at Merrill Lynch, where he was their chief strategist for preferred securities for three years, and a vice president in corporate finance and treasury department for two years. Previously, he held bank supervision and monetary policy roles at the Federal Reserve Bank of New York for five years. He holds a BA from Vassar College and an MA from Columbia University's School of International and Public Affairs.
Francis C. Poli Presently, Francis C. Poli occupies the position of Secretary & Chief Legal Officer of Cohen & Steers Infrastructure Fund, Inc., Secretary of Cohen & Steers Quality Income Realty Fund, Inc., Secretary of Cohen & Steers Closed-End Opportunity Fund, Inc., Secretary, Vice President & General Counsel at Cohen & Steers Global Income Builder, Inc., Secretary, Executive VP & General Counsel of Cohen & Steers, Inc. (New York), President for Cohen & Steers Securities LLC and Secretary & Chief Legal Officer at Cohen & Steers Global Power & Utility Fund, Inc. (both are subsidiaries of Cohen & Steers, Inc. (New York)), Secretary, Vice President & General Counsel at Cohen & Steers REIT & Preferred & Income Fund, Inc., Secretary & Chief Legal Officer at Cohen & Steers Select Preferred & Income Fund, Inc., Secretary at Cohen & Steers MLP Income & Energy Opportunity Fund Inc, Secretary for Cohen & Steers Ltd. Duration Preferred & Income Fund, Inc. and Secretary of Cohen & Steers Total Return Realty Fund, Inc. Francis C. Poli is also on the board of The Leopold Schepp Foundation and Member of New York City Bar Association, Member of New York State Bar Association and Member of Connecticut Bar Association, Inc. In his past career Mr. Poli was Associate-Securities Practice Group at Kelley Drye & Warren LLP, Secretary & Chief Legal Officer for Cohen & Steers MLP Fund, Inc., Secretary & Chief Legal Officer at Cohen & Steers MLP Income & Energy Opportunity Fund Inc, Secretary at Cohen & Steers Closed-End Opportunity Fund, Inc., Vice President & Assistant General Counsel at J.P. Morgan & Co., Inc. (Old), Secretary & Chief Legal Officer for Cohen & Steers Dividend Majors Fund, Inc. and General Counsel of Allianz Asset Management of America LP. Francis C. Poli received an undergraduate degree from Boston College and a graduate degree from Pace Law School.
C. Edward Ward C. Edward Ward is on the board of Cohen & Steers Total Return Realty Fund, Inc. and 9 other companies. In his past career Mr. Ward held the position of Director-Closed-End Fund Management at New York Stock Exchange, Inc. Mr. Ward received an MBA from Harvard University.
Lisa D. Phelan Lisa D. Phelan holds the position of Chief Compliance Officer of Cohen & Steers Total Return Realty Fund, Inc., Chief Compliance Officer at Cohen & Steers Quality Income Realty Fund, Inc., Chief Compliance Officer for Cohen & Steers REIT & Preferred Income Fund, Inc., Chief Compliance Officer at Cohen & Steers Closed-End Opportunity Fund, Inc., Chief Compliance Officer of Cohen & Steers Global Income Builder, Inc., Chief Compliance Officer for Cohen & Steers Select Preferred & Income Fund, Inc., Chief Compliance Officer for Cohen & Steers Ltd. Duration Preferred & Income Fund, Inc., Chief Compliance Officer of Cohen & Steers MLP Income & Energy Opportunity Fund Inc, Chief Compliance Officer for Cohen & Steers Infrastructure Fund, Inc., Chief Compliance Officer for Cohen & Steers Securities LLC and Chief Compliance Officer for Cohen & Steers Preferred Securities & Income SMA Shares, Inc. In the past she occupied the position of Chief Compliance Officer at Overture Asset Managers LLC, Chief Compliance Officer for Cohen & Steers MLP Fund, Inc., First Vice President at Prudential Securities, Chief Compliance Officer at Cohen & Steers Global Power & Utility Fund, Inc., First Vice President-Risk Management at Prudential Securities, Inc. (Michigan), Chief Compliance Officer for Avatar Associates and Chief Compliance Officer for Cohen & Steers Dividend Majors Fund, Inc.
Michael G. Clark Michael G. Clark is a businessperson who has been at the head of 20 different companies. He occupies the position of President of DWS Credit Opportunity Fund, Inc., President for DWS Multisector Income Fund, President at DWS Science & Technology Fund, President of Deutsche DWS Global and President for DWS Core Equity Fund. Mr. Clark is also on the board of 11 other companies. Michael G. Clark previously occupied the position of President & Chief Executive Officer at DWS Floating Rate Opportunities Fund, Inc., President for Deutsche High Income Trust, President at Deutsche Multi-Market Income Trust, President for DWS Municipal Income Trust, President for Deutsche Strategic Income Trust, President for DWS Strategic Municipal Income Trust, President of Deutsche Global High Income Fund, Inc., President & Chief Executive Officer at New Germany Fund, Inc., President & Chief Executive Officer for Central Europe, Russia & Turkey Fund, Inc., President & Chief Executive Officer at The European Equity Fund, Inc., President for DWS RREEF Real Estate Fund, Inc., President for DWS RREEF World Real Estate Fund, Inc., President at DWS Advisor Funds, President at DWS Dreman Value Income Edge Fund, Inc., President for Deutsche Strategic Government Securities Fund, Senior Vice President-Operations at Merrill Lynch Investment Managers LP, Managing Director at DWS Investment Management Americas, Inc., Director-Product Development at Merrill Lynch Investment Managers (IoM), Managing Director at Deutsche Asset Management International GmbH, Auditor at Merrill Lynch & Co., Inc. and Auditor at Deloitte & Touche LLP.
James Giallanza Currently, James Giallanza is Chief Financial Officer at Cohen & Steers Total Return Realty Fund, Inc., Chief Financial Officer of Cohen & Steers Quality Income Realty Fund, Inc., Chief Financial Officer at Cohen & Steers REIT & Preferred Income Fund, Inc., Chief Financial Officer for Cohen & Steers Closed-End Opportunity Fund, Inc., Chief Financial Officer at Cohen & Steers Global Income Builder, Inc., Chief Financial Officer at Cohen & Steers Select Preferred & Income Fund, Inc., Chief Financial Officer for Cohen & Steers Ltd. Duration Preferred & Income Fund, Inc., Chief Financial Officer of Cohen & Steers MLP Income & Energy Opportunity Fund Inc, Chief Financial Officer at Cohen & Steers Infrastructure Fund, Inc. and Chief Financial Officer of Cohen & Steers Preferred Securities & Income SMA Shares, Inc. In his past career Mr. Giallanza was Treasurer at Cohen & Steers MLP Fund, Inc., Chief Financial Officer & Treasurer for Cohen & Steers Global Power & Utility Fund, Inc., Chief Financial Officer & Treasurer of Cohen & Steers Dividend Majors Fund, Inc., Chief Financial Officer & Treasurer at Citigroup Asset Management, Chief Financial Officer & Treasurer for Citigroup Asset Management (United States) and Director & Controller-Wholesale Business at UBS Asset Management (US), Inc.
Yigal Dan Jhirad Mr. Yigal D. Jhirad is a Head of Risk & Quantitative at Cohen & Steers Capital Management, Inc., a Vice President at Cohen & Steers Global Income Builder, Inc., a Vice President at Cohen & Steers Quality Income Realty Fund, Inc., a Vice President at Cohen & Steers REIT & Preferred & Income Fund, Inc., a Vice President at Cohen & Steers Total Return Realty Fund, Inc., a Vice President at Cohen & Steers Closed-End Opportunity Fund, Inc. and a Vice President at Cohen & Steers Infrastructure Fund, Inc. He is also Senior Vice President and a portfolio manager for Cohen & Steers options and real assets strategies. He heads the firm's Investment Risk Committee. He has over 31 years of experience. Prior to joining the firm in 2007, he was an executive director in the institutional equities division of Morgan Stanley, where he headed the company's portfolio and derivatives strategies effort. He holds a BS from the Wharton School. He is a Financial Risk Manager (FRM), as Certified by the Global Association of Risk Professionals.
Albert Laskaj Mr. Albert Laskaj is Treasurer at Cohen & Steers Quality Income Realty Fund, Inc., Treasurer at Cohen & Steers REIT & Preferred Income Fund, Inc., Treasurer at Cohen & Steers Select Preferred & Income Fund, Inc., Vice President at Legg Mason & Co. LLC, Assistant Treasurer at Legg Mason Permal Global Alternatives Fund, Inc., Assistant Treasurer at Western Asset Middle Market Debt Fund, Inc., Treasurer at Cohen & Steers Closed-End Opportunity Fund, Inc., Treasurer at Cohen & Steers Global Income Builder, Inc., Treasurer at Cohen & Steers Infrastructure Fund, Inc., Treasurer at Cohen & Steers Ltd. Duration Preferred & Income Fund, Inc. and Treasurer at Cohen & Steers Total Return Realty Fund, Inc. Mr. Laskaj was previously employed as Assistant Treasurer by Western Asset Middle Market Income Fund, Inc., Assistant Treasurer by ClearBridge Energy MLP Opportunity Fund, Inc., Assistant Treasurer by Legg Mason BW Global Income Opportunities Fund, Inc., Assistant Treasurer by Western Asset High Yield Defined Opportunity Fund, Inc., Assistant Treasurer by Clearbridge Energy MLP Fund, Inc., Controller by Western Asset Municipal Defined Opportunity Trust, Inc., Controller by LMP Capital & Income Fund, Inc., Controller by LMP Real Estate Income Fund, Inc., Controller by Western Asset Emerging Markets Debt Fund, Inc., Controller by Western Asset Emerging Markets Income Fund, Inc., Controller by Western Asset High Income Fund, Inc., Controller by Western Asset High Income Opportunity Fund, Inc., Controller by Western Asset Inflation Management Fund, Inc., Controller by Western Asset Intermediate Muni Fund, Inc., Controller by Western Asset Managed High Income Fund, Inc., Controller by Western Asset Municipal High Income Fund, Inc., Controller by Western Asset Municipal Partners Fund, Inc., Controller by Western Asset Variable Rate Strategic Fund, Inc., Controller by Western Asset Worldwide Income Fund, Inc., and Controller by Western Asset Managed Municipals Fund, Inc.
Gerald J. Maginnis Gerald J. Maginnis is on the board of Cohen & Steers Total Return Realty Fund, Inc. and 12 other companies. He previously held the position of Managing Partner-Philadelphia Office at KPMG LLP, Director at Pennsylvania Institute of Certified Public Accountants and Council Member at The American Institute of Certified Public Accountants. He received an undergraduate degree from St. Joseph's University.
Robert Hamilton Steers Mr. Robert H. Steers is a Vice President at Cohen & Steers Securities LLC, a Chairman at Cohen & Steers REIT & Preferred & Income Fund, Inc., a Chairman at Cohen & Steers Quality Income Realty Fund, Inc., a Chairman at Cohen & Steers Global Income Builder, Inc., a Chairman at Cohen & Steers Infrastructure Fund, Inc., a Chairman at Cohen & Steers Total Return Realty Fund, Inc., a Chief Executive Officer at Cohen & Steers Capital Management, Inc., a Chief Executive Officer & Director at Cohen & Steers, Inc. (New York), a Chairman at Cohen & Steers Closed-End Opportunity Fund, Inc., a Chairman at Cohen & Steers Ltd. Duration Preferred & Income Fund, Inc., a Chairman at Cohen & Steers MLP Income & Energy Opportunity Fund Inc and a Chairman at Cohen & Steers Select Preferred & Income Fund, Inc. He is on the Board of Directors at Cohen & Steers Preferred Securities & Income SMA Shares, Inc., Cohen & Steers, Inc. (New York) and Georgetown University. He has over 41 years of experience. He is a member of the Advisory Committee of the Staff Retirement Plan of the International Monetary Fund and serves as Investment Committee Chairman, Georgetown University. He is based in New York. Prior to co-founding the firm in 1986, he was a senior vice president and Chief Investment Officer of National Securities and Research Corporation from 1982 to 1986, where, in 1985, he organized and managed the nation's first real estate securities mutual fund. From 1977 to 1982, he was a vice president at Citibank, serving as an analyst and portfolio manager of Citibank's Emerging Growth Stock Fund. He holds a BS from Georgetown University and an MBA from George Washington University.
Frank K. Ross Frank K. Ross is Director-Accounting Education Center at Howard University School of Business and on the board of 12 other companies. He previously was Managing Partner at KPMG LLP.
Joseph Martin Harvey Mr. Joseph M. Harvey is a Director & Vice President at Cohen & Steers Closed-End Opportunity Fund, Inc., a Director & Vice President at Cohen & Steers Select Preferred & Income Fund, Inc., an Independent Director at Cohen & Steers Preferred Securities & Income SMA Shares, Inc., a Director & Vice President at Cohen & Steers Quality Income Realty Fund, Inc., an Independent Director at Cohen & Steers REIT & Preferred & Income Fund, Inc., a Director & Vice President at Cohen & Steers Total Return Realty Fund, Inc., a President & Chief Investment Officer at Cohen & Steers Capital Management, Inc., a President & Chief Investment Officer at Cohen & Steers, Inc. (New York), a Director & Vice President at Cohen & Steers Ltd. Duration Preferred & Income Fund, Inc. and an Interested Director & Vice President at Cohen & Steers MLP Income & Energy Opportunity Fund Inc. He is on the Board of Directors at Cohen & Steers Closed-End Opportunity Fund, Inc., Cohen & Steers Select Preferred & Income Fund, Inc., Cohen & Steers Preferred Securities & Income SMA Shares, Inc., Cohen & Steers Global Income Builder, Inc., Cohen & Steers Quality Income Realty Fund, Inc., Cohen & Steers REIT & Preferred & Income Fund, Inc., Cohen & Steers Total Return Realty Fund, Inc., Cohen & Steers Infrastructure Fund, Inc., Cohen & Steers Ltd. Duration Preferred & Income Fund, Inc. and Cohen & Steers MLP Income & Energy Opportunity Fund Inc. He joined the firm in 1992 as a REIT analyst. He became a portfolio manager in 1998 and was named President in 2003. Prior to joining the firm, he was a vice president with Robert A. Stanger & Co., where he was an analyst. He holds a BSE from Princeton University. He is based in New York.
Dean A. Junkans Dean A. Junkans is on the board of Cohen & Steers Total Return Realty Fund, Inc. and 10 other companies. In his past career he was Chief Investment Officer at Wells Fargo & Co. Chief Investment Officer for Wells Fargo Bank, NA (Private Banking) and Regional Investment Manager at Wells Fargo Clearing Services LLC (both are subsidiaries of Wells Fargo & Co.), Senior Research Analyst at Farm Credit Services of America PCA and Member of CFA Institute. Dean A. Junkans received an undergraduate degree from the University of Wisconsin and a graduate degree from Purdue University.
Thomas N. Bohjalian Mr. Thomas N. Bohjalian, CFA MBA, is a Vice President at Cohen & Steers Quality Income Realty Fund, Inc., a Vice President at Cohen & Steers Total Return Realty Fund, Inc., a Vice President at Cohen & Steers REIT & Preferred & Income Fund, Inc. and a Head of U.S. Real Estate at Cohen & Steers Capital Management, Inc. He is also a Executive Vice President and a senior portfolio manager for the firm's real estate securities portfolios and oversees the research process for U.S. real estate securities. He has over 28 years of experience. Prior to joining Cohen & Steers in 2002, he was a vice president and REIT analyst for five years at AEW Capital Management. He holds both a BS and an MBA from Northeastern University.
Jane F. Magpiong Jane F. Magpiong is President for Untap Potential LLC. Ms. Magpiong is also on the board of 10 other companies. In her past career she occupied the position of President for Bank of America Private Bank and Senior Managing Director at Teachers Insurance & Annuity Association of America. Jane F. Magpiong received an undergraduate degree from the University of California, Santa Barbara and a graduate degree from the University of Redlands.
Daphne L. Richards Currently, Daphne L. Richards holds the position of President & Chief Investment Officer at Ledge Harbor Management, Inc. Mr. Richards is also Member of 100 Women In Finance Association, Inc. and on the board of 10 other companies.

量化对比

全部评论 0

  • 暂无评论

阿布量化公众号二维码 abu_quant 扫一扫关注阿布量化

热门推荐